EZY68GL EGGP-EGNS
Flight info
| Callsign | EZY68GL |
|---|---|
| Flight time | 0h 23m |
| Altitude | 14000 |
| Route | WAL M146 LUSOD DCT IOM |
| Aircraft | A319/M-SDE2E3FGIJ1RWXYZ/LB1 |
Departure
| Time | 2026-05-04 08:22 |
|---|---|
| Airport | Liverpool John Lennon Airport (EGGP) |
Arrival
| Time | 2026-05-04 08:46 |
|---|---|
| Airport | Isle of Man Airport (EGNS) |
| Time | Latitude | Longitude | Altitude | Speed | Heading |
|---|---|---|---|---|---|
| 2026-05-04 08:08 | 53.33669 | -2.85439 | 89 ft | 0 kts | 356° |
| 2026-05-04 08:14 | 53.33657 | -2.85438 | 92 ft | 4 kts | 354° |
| 2026-05-04 08:16 | 53.33610 | -2.85549 | 93 ft | 0 kts | 85° |
| 2026-05-04 08:17 | 53.33607 | -2.85531 | 92 ft | 4 kts | 115° |
| 2026-05-04 08:19 | 53.33475 | -2.86147 | 89 ft | 14 kts | 265° |
| 2026-05-04 08:19 | 53.33466 | -2.86326 | 92 ft | 14 kts | 265° |
| 2026-05-04 08:20 | 53.33459 | -2.86489 | 89 ft | 14 kts | 266° |
| 2026-05-04 08:20 | 53.33452 | -2.86622 | 93 ft | 10 kts | 263° |
| 2026-05-04 08:20 | 53.33419 | -2.86714 | 89 ft | 7 kts | 216° |
| 2026-05-04 08:20 | 53.33368 | -2.86733 | 89 ft | 8 kts | 177° |
| 2026-05-04 08:21 | 53.33315 | -2.86690 | 89 ft | 8 kts | 141° |
| 2026-05-04 08:21 | 53.33287 | -2.86629 | 90 ft | 6 kts | 98° |
| 2026-05-04 08:21 | 53.33291 | -2.86528 | 88 ft | 16 kts | 85° |
| 2026-05-04 08:21 | 53.33315 | -2.86047 | 89 ft | 78 kts | 85° |
| 2026-05-04 08:22 | 53.33375 | -2.84749 | 96 ft | 142 kts | 85° |
| 2026-05-04 08:22 | 53.33466 | -2.83104 | 711 ft | 140 kts | 84° |
| 2026-05-04 08:24 | 53.39595 | -2.77997 | 4673 ft | 266 kts | 304° |
| 2026-05-04 08:24 | 53.40156 | -2.80981 | 5574 ft | 277 kts | 271° |
| 2026-05-04 08:24 | 53.39711 | -2.84109 | 6625 ft | 278 kts | 249° |
| 2026-05-04 08:24 | 53.39030 | -2.87139 | 7635 ft | 279 kts | 253° |
| 2026-05-04 08:25 | 53.38539 | -2.90308 | 8609 ft | 282 kts | 261° |
| 2026-05-04 08:25 | 53.38341 | -2.93596 | 9540 ft | 285 kts | 270° |
| 2026-05-04 08:25 | 53.38608 | -2.96897 | 10356 ft | 292 kts | 288° |
| 2026-05-04 08:25 | 53.39581 | -3.00008 | 10673 ft | 313 kts | 305° |
| 2026-05-04 08:26 | 53.40814 | -3.03080 | 11341 ft | 322 kts | 305° |
| 2026-05-04 08:27 | 53.49835 | -3.25280 | 14063 ft | 316 kts | 304° |
| 2026-05-04 08:28 | 53.51061 | -3.28336 | 14069 ft | 315 kts | 304° |
| 2026-05-04 08:28 | 53.52286 | -3.31396 | 14067 ft | 316 kts | 304° |
| 2026-05-04 08:28 | 53.53512 | -3.34461 | 14073 ft | 316 kts | 304° |
| 2026-05-04 08:28 | 53.54738 | -3.37532 | 14074 ft | 316 kts | 304° |
| 2026-05-04 08:29 | 53.55942 | -3.40552 | 14067 ft | 316 kts | 304° |
| 2026-05-04 08:29 | 53.57183 | -3.43663 | 14068 ft | 315 kts | 304° |
| 2026-05-04 08:29 | 53.58385 | -3.46661 | 14071 ft | 315 kts | 305° |
| 2026-05-04 08:31 | 53.67295 | -3.67786 | 14075 ft | 316 kts | 305° |
| 2026-05-04 08:33 | 53.76105 | -3.88936 | 13757 ft | 309 kts | 305° |
| 2026-05-04 08:33 | 53.77324 | -3.91882 | 13396 ft | 307 kts | 305° |
| 2026-05-04 08:35 | 53.85674 | -4.12122 | 10863 ft | 293 kts | 305° |
| 2026-05-04 08:35 | 53.86833 | -4.14941 | 10499 ft | 291 kts | 305° |
| 2026-05-04 08:35 | 53.87974 | -4.17715 | 10136 ft | 289 kts | 305° |
| 2026-05-04 08:35 | 53.89094 | -4.20560 | 9697 ft | 289 kts | 298° |
| 2026-05-04 08:37 | 53.92217 | -4.39736 | 7852 ft | 274 kts | 284° |
| 2026-05-04 08:37 | 53.92640 | -4.42883 | 7572 ft | 272 kts | 284° |
| 2026-05-04 08:37 | 53.93067 | -4.46011 | 7296 ft | 272 kts | 284° |
| 2026-05-04 08:38 | 53.93501 | -4.49135 | 7022 ft | 271 kts | 284° |
| 2026-05-04 08:38 | 53.93918 | -4.52191 | 6747 ft | 266 kts | 284° |
| 2026-05-04 08:38 | 53.94319 | -4.55191 | 6447 ft | 254 kts | 284° |
| 2026-05-04 08:40 | 53.96872 | -4.74239 | 4369 ft | 231 kts | 285° |
| 2026-05-04 08:40 | 53.97203 | -4.76894 | 4083 ft | 228 kts | 284° |
| 2026-05-04 08:40 | 53.97576 | -4.79477 | 3794 ft | 222 kts | 289° |
| 2026-05-04 08:41 | 53.98045 | -4.81901 | 3500 ft | 208 kts | 304° |
| 2026-05-04 08:41 | 53.99034 | -4.83506 | 3222 ft | 195 kts | 333° |
| 2026-05-04 08:41 | 54.00268 | -4.84376 | 3028 ft | 189 kts | 346° |
| 2026-05-04 08:41 | 54.01508 | -4.84891 | 2951 ft | 180 kts | 349° |
| 2026-05-04 08:42 | 54.02707 | -4.85350 | 2924 ft | 178 kts | 349° |
| 2026-05-04 08:42 | 54.03919 | -4.85691 | 2885 ft | 176 kts | 5° |
| 2026-05-04 08:42 | 54.05079 | -4.85087 | 2858 ft | 176 kts | 28° |
| 2026-05-04 08:42 | 54.06036 | -4.83781 | 2756 ft | 179 kts | 49° |
| 2026-05-04 08:43 | 54.06636 | -4.81923 | 2580 ft | 179 kts | 71° |
| 2026-05-04 08:43 | 54.06848 | -4.79847 | 2326 ft | 179 kts | 78° |
| 2026-05-04 08:43 | 54.07020 | -4.77758 | 2040 ft | 178 kts | 78° |
| 2026-05-04 08:43 | 54.07184 | -4.75705 | 1760 ft | 171 kts | 78° |
| 2026-05-04 08:44 | 54.07334 | -4.73811 | 1496 ft | 152 kts | 79° |
| 2026-05-04 08:44 | 54.07466 | -4.72112 | 1244 ft | 140 kts | 79° |
| 2026-05-04 08:46 | 54.08402 | -4.61783 | 43 ft | 38 kts | 78° |
| 2026-05-04 08:46 | 54.08434 | -4.61532 | 41 ft | 20 kts | 78° |
| 2026-05-04 08:46 | 54.08503 | -4.61432 | 42 ft | 14 kts | 339° |
| 2026-05-04 08:46 | 54.08537 | -4.61574 | 41 ft | 14 kts | 276° |
| 2026-05-04 08:47 | 54.08548 | -4.61747 | 42 ft | 15 kts | 277° |
| 2026-05-04 08:47 | 54.08548 | -4.61917 | 43 ft | 14 kts | 259° |
| 2026-05-04 08:47 | 54.08530 | -4.62067 | 47 ft | 13 kts | 258° |
| 2026-05-04 08:47 | 54.08512 | -4.62215 | 49 ft | 12 kts | 258° |
| 2026-05-04 08:48 | 54.08495 | -4.62349 | 51 ft | 11 kts | 257° |
| 2026-05-04 08:48 | 54.08476 | -4.62499 | 46 ft | 15 kts | 258° |
| 2026-05-04 08:48 | 54.08459 | -4.62624 | 46 ft | 17 kts | 256° |
| 2026-05-04 08:48 | 54.08437 | -4.62809 | 43 ft | 13 kts | 258° |
| 2026-05-04 08:49 | 54.08420 | -4.62952 | 41 ft | 10 kts | 269° |
| 2026-05-04 08:50 | 54.08622 | -4.63183 | 42 ft | 1 kts | 232° |
| 2026-05-04 08:50 | 54.08618 | -4.63189 | 43 ft | 1 kts | 226° |
| 2026-05-04 08:51 | 54.08608 | -4.63206 | 44 ft | 2 kts | 224° |
| 2026-05-04 08:51 | 54.08601 | -4.63217 | 46 ft | 0 kts | 223° |